createdAt,value
2019-04-22T00:02:57.534Z,21.33
2019-04-22T00:08:19.724Z,19.48
2019-04-22T00:13:37.526Z,16.97
2019-04-22T00:18:52.996Z,17.85
2019-04-22T00:23:39.232Z,12.73
2019-04-22T00:28:43.915Z,15.05
2019-04-22T00:33:48.098Z,18.23
2019-04-22T00:38:58.711Z,14.65
2019-04-22T00:44:02.593Z,14.25
2019-04-22T00:49:52.740Z,14.45
2019-04-22T00:54:10.303Z,15.80
2019-04-22T00:59:12.917Z,15.72
2019-04-22T01:04:31.565Z,12.60
2019-04-22T01:09:24.503Z,15.28
2019-04-22T01:14:29.727Z,14.05
2019-04-22T01:19:38.734Z,14.58
2019-04-22T01:24:38.836Z,16.27
2019-04-22T01:29:34.961Z,14.68
2019-04-22T01:34:40.447Z,22.02
2019-04-22T01:40:06.574Z,15.32
2019-04-22T01:45:06.990Z,14.38
2019-04-22T01:50:12.281Z,13.53
2019-04-22T01:55:18.930Z,16.30
2019-04-22T02:00:14.136Z,15.48
2019-04-22T02:05:24.546Z,18.37
2019-04-22T02:10:40.341Z,14.73
2019-04-22T02:15:43.730Z,18.45
2019-04-22T02:20:43.084Z,18.90
2019-04-22T02:25:59.315Z,17.60
2019-04-22T02:41:26.214Z,16.95
2019-04-22T02:51:23.022Z,16.95
2019-04-22T02:56:39.928Z,17.82
2019-04-22T03:11:50.025Z,19.48
2019-04-22T03:21:54.604Z,22.55
2019-04-22T03:27:00.853Z,20.68
2019-04-22T03:32:32.160Z,22.22
2019-04-22T03:42:11.626Z,21.13
2019-04-22T03:47:29.111Z,23.07
2019-04-22T03:52:24.698Z,24.70
2019-04-22T04:02:52.348Z,23.25
2019-04-22T04:17:56.983Z,23.75
2019-04-22T04:23:07.999Z,27.30
2019-04-22T04:33:21.174Z,21.97
2019-04-22T04:38:11.678Z,22.42
2019-04-22T04:48:34.435Z,20.05
2019-04-22T04:53:33.581Z,20.12
2019-04-22T05:03:52.301Z,15.58
2019-04-22T05:19:00.038Z,15.98
2019-04-22T05:24:02.442Z,14.25
2019-04-22T05:29:05.516Z,12.82
2019-04-22T05:34:08.544Z,14.95
2019-04-22T05:39:14.223Z,13.80
2019-04-22T05:44:36.146Z,15.35
2019-04-22T05:49:23.875Z,9.83
2019-04-22T05:54:35.179Z,13.00
2019-04-22T05:59:39.722Z,9.80
2019-04-22T06:04:48.426Z,11.05
2019-04-22T06:09:43.491Z,11.85
2019-04-22T06:14:54.111Z,10.60
2019-04-22T06:19:57.520Z,9.60
2019-04-22T06:25:27.600Z,9.78
2019-04-22T06:30:10.767Z,10.13
2019-04-22T06:35:23.679Z,9.38
2019-04-22T06:40:27.489Z,8.80
2019-04-22T06:45:32.367Z,8.53
2019-04-22T06:50:40.561Z,11.85
2019-04-22T06:55:41.271Z,10.60
2019-04-22T07:00:43.309Z,7.87
2019-04-22T07:05:47.566Z,7.63
2019-04-22T07:10:50.415Z,8.30
2019-04-22T07:21:06.132Z,6.85
2019-04-22T07:26:08.215Z,6.83
2019-04-22T07:31:17.456Z,8.85
2019-04-22T07:36:38.188Z,7.37
2019-04-22T07:41:28.794Z,10.03
2019-04-22T07:46:33.567Z,7.90
2019-04-22T07:51:41.102Z,7.47
2019-04-22T07:56:48.738Z,6.45
2019-04-22T08:02:04.799Z,6.60
2019-04-22T08:06:58.938Z,9.53
2019-04-22T08:11:59.520Z,7.55
2019-04-22T08:17:14.172Z,10.38
2019-04-22T08:22:12.489Z,7.87
2019-04-22T08:27:17.366Z,5.87
2019-04-22T08:32:26.348Z,7.85
2019-04-22T08:42:42.942Z,8.15
2019-04-22T08:47:36.156Z,6.35
2019-04-22T08:52:40.656Z,6.55
2019-04-22T09:02:54.016Z,56.15
2019-04-22T09:08:01.460Z,26.35
2019-04-22T09:18:16.059Z,284.85
2019-04-22T09:23:14.803Z,177.17
2019-04-22T09:28:24.556Z,51.23
2019-04-22T09:33:27.255Z,160.82
2019-04-22T09:43:40.754Z,109.42
2019-04-22T09:48:48.825Z,52.83
2019-04-22T09:53:54.800Z,276.70
2019-04-22T09:58:58.881Z,120.45
2019-04-22T10:14:05.556Z,60.17
2019-04-22T10:19:12.044Z,57.00
2019-04-22T10:24:18.664Z,35.03
2019-04-22T10:29:32.422Z,24.85
2019-04-22T10:34:16.766Z,20.77
2019-04-22T10:39:10.576Z,29.02
2019-04-22T10:44:15.317Z,22.10
2019-04-22T10:49:20.310Z,34.73
2019-04-22T10:54:25.260Z,39.35
2019-04-22T10:59:29.019Z,20.77
2019-04-22T11:04:32.626Z,21.57
2019-04-22T11:09:47.656Z,20.70
2019-04-22T11:14:43.286Z,22.50
2019-04-22T11:19:47.895Z,35.80
2019-04-22T11:24:52.897Z,108.22
2019-04-22T11:29:57.396Z,69.92
2019-04-22T11:35:01.710Z,28.25
2019-04-22T11:40:18.958Z,44.55
2019-04-22T11:45:13.606Z,91.37
2019-04-22T11:50:17.737Z,62.78
2019-04-22T11:55:22.529Z,63.87
2019-04-22T12:00:27.919Z,148.10
2019-04-22T12:05:32.226Z,146.87
2019-04-22T12:10:44.122Z,96.15
2019-04-22T12:15:42.713Z,49.75
2019-04-22T12:20:47.482Z,40.48
2019-04-22T12:25:58.037Z,34.43
2019-04-22T12:30:57.388Z,49.58
2019-04-22T12:36:02.358Z,40.75
2019-04-22T12:41:09.896Z,27.87
2019-04-22T12:46:12.158Z,24.10
2019-04-22T12:51:15.776Z,22.67
2019-04-22T12:56:19.687Z,17.50
2019-04-22T13:01:24.680Z,20.30
2019-04-22T13:06:30.313Z,17.73
2019-04-22T13:11:36.408Z,14.63
2019-04-22T13:16:40.727Z,15.90
2019-04-22T13:21:44.843Z,14.93
2019-04-22T13:26:48.836Z,12.85
2019-04-22T13:31:53.132Z,12.53
2019-04-22T13:36:56.949Z,15.45
2019-04-22T13:42:05.630Z,14.58
2019-04-22T13:47:24.072Z,11.73
2019-04-22T13:57:32.553Z,11.35
2019-04-22T14:02:26.732Z,11.67
2019-04-22T14:12:34.943Z,13.83
2019-04-22T14:17:39.061Z,13.83
2019-04-22T14:22:44.300Z,10.40
2019-04-22T14:27:56.562Z,10.43
2019-04-22T14:32:54.095Z,14.70
2019-04-22T14:37:58.493Z,18.23
2019-04-22T14:43:25.206Z,21.27
2019-04-22T14:48:35.688Z,17.12
2019-04-22T14:53:35.269Z,16.97
2019-04-22T14:58:19.287Z,15.88
2019-04-22T15:03:23.839Z,14.27
2019-04-22T15:08:28.864Z,15.53
2019-04-22T15:13:33.558Z,13.20
2019-04-22T15:18:55.672Z,16.45
2019-04-22T15:24:02.411Z,15.23
2019-04-22T15:29:07.201Z,12.95
2019-04-22T15:34:12.303Z,9.83
2019-04-22T15:39:17.265Z,10.37
2019-04-22T15:44:21.959Z,10.38
2019-04-22T15:49:25.843Z,13.10
2019-04-22T15:54:29.855Z,10.75
2019-04-22T15:59:49.346Z,11.90
2019-04-22T16:04:38.940Z,11.50
2019-04-22T16:09:43.505Z,14.95
2019-04-22T16:14:53.040Z,10.43
2019-04-22T16:19:53.299Z,10.58
2019-04-22T16:25:15.396Z,24.27
2019-04-22T16:30:19.276Z,12.45
2019-04-22T16:35:22.870Z,13.20
2019-04-22T16:40:26.972Z,9.75
2019-04-22T16:45:31.636Z,10.72
2019-04-22T16:50:38.275Z,9.80
2019-04-22T16:55:41.035Z,10.53
2019-04-22T17:00:46.938Z,8.80
2019-04-22T17:05:52.177Z,7.95
2019-04-22T17:10:57.686Z,11.93
2019-04-22T17:16:02.320Z,10.82
2019-04-22T17:21:08.461Z,8.88
2019-04-22T17:26:12.567Z,10.40
2019-04-22T17:31:16.545Z,8.70
2019-04-22T17:36:20.541Z,7.70
2019-04-22T17:41:38.843Z,7.97
2019-04-22T17:46:48.652Z,8.43
2019-04-22T17:57:24.001Z,8.78
2019-04-22T18:02:25.196Z,6.62
2019-04-22T18:07:44.483Z,7.08
2019-04-22T18:12:45.576Z,8.45
2019-04-22T18:17:45.009Z,6.90
2019-04-22T18:22:41.750Z,7.10
2019-04-22T18:28:03.845Z,7.53
2019-04-22T18:32:55.629Z,8.33
2019-04-22T18:38:15.427Z,8.13
2019-04-22T18:43:11.912Z,8.65
2019-04-22T18:48:08.740Z,7.28
2019-04-22T18:53:30.091Z,7.75
2019-04-22T18:58:24.634Z,9.05
2019-04-22T19:03:22.667Z,8.68
2019-04-22T19:08:43.315Z,8.27
2019-04-22T19:14:02.302Z,12.85
2019-04-22T19:19:18.427Z,10.75
2019-04-22T19:24:03.143Z,10.08
2019-04-22T19:29:05.611Z,10.18
2019-04-22T19:34:12.630Z,11.20
2019-04-22T19:39:12.127Z,9.00
2019-04-22T19:44:29.189Z,8.83
2019-04-22T19:49:38.326Z,9.40
2019-04-22T19:54:38.980Z,9.48
2019-04-22T19:59:42.578Z,10.95
2019-04-22T20:05:05.912Z,9.25
2019-04-22T20:10:05.302Z,8.98
2019-04-22T20:15:10.046Z,9.33
2019-04-22T20:20:23.137Z,8.23
2019-04-22T20:25:27.237Z,8.28
2019-04-22T20:30:34.553Z,9.30
2019-04-22T20:35:43.490Z,8.30
2019-04-22T20:40:42.660Z,8.75
2019-04-22T20:45:51.147Z,8.15
2019-04-22T20:50:59.297Z,7.55
2019-04-22T20:56:04.317Z,8.58
2019-04-22T21:01:05.054Z,8.40
2019-04-22T21:06:14.859Z,9.90
2019-04-22T21:11:24.850Z,8.84
2019-04-22T21:16:32.845Z,9.50
2019-04-22T21:21:37.999Z,8.53
2019-04-22T21:26:43.767Z,9.37
2019-04-22T21:31:51.161Z,12.68
2019-04-22T21:37:06.211Z,8.63
2019-04-22T21:41:58.716Z,11.63
2019-04-22T21:47:14.926Z,17.75
2019-04-22T21:52:16.941Z,13.55
2019-04-22T21:57:24.135Z,12.18
2019-04-22T22:07:17.225Z,10.18
2019-04-22T22:12:46.005Z,11.00
2019-04-22T22:17:42.899Z,12.73
2019-04-22T22:22:52.198Z,12.05
2019-04-22T22:27:47.658Z,10.28
2019-04-22T22:33:04.117Z,12.78
2019-04-22T22:38:05.465Z,11.88
2019-04-22T22:42:52.977Z,11.60
2019-04-22T22:48:24.091Z,12.10
2019-04-22T22:53:32.694Z,10.55
2019-04-22T22:58:27.514Z,10.25
2019-04-22T23:03:46.006Z,11.90
2019-04-22T23:08:38.190Z,12.75
2019-04-22T23:13:44.335Z,11.97
2019-04-22T23:18:28.018Z,9.48
2019-04-22T23:23:51.159Z,9.28
2019-04-22T23:28:50.932Z,8.40
2019-04-22T23:34:01.479Z,9.47
2019-04-22T23:39:10.848Z,9.18
2019-04-22T23:49:12.874Z,8.13
2019-04-22T23:54:23.956Z,7.70
2019-04-22T23:59:41.364Z,7.92
